createdAt,value
2019-05-22T00:00:42.975Z,30.10
2019-05-22T00:03:15.236Z,30.80
2019-05-22T00:05:46.720Z,30.23
2019-05-22T00:08:16.922Z,30.40
2019-05-22T00:10:49.621Z,30.97
2019-05-22T00:13:22.799Z,30.90
2019-05-22T00:15:54.450Z,29.97
2019-05-22T00:18:25.171Z,31.80
2019-05-22T00:20:55.618Z,28.77
2019-05-22T00:23:26.542Z,30.40
2019-05-22T00:25:55.461Z,28.87
2019-05-22T00:28:25.403Z,29.67
2019-05-22T00:30:55.414Z,28.33
2019-05-22T00:33:24.486Z,29.77
2019-05-22T00:35:53.556Z,29.63
2019-05-22T00:38:23.481Z,29.00
2019-05-22T00:40:55.308Z,29.47
2019-05-22T00:43:30.022Z,30.67
2019-05-22T00:45:59.067Z,30.13
2019-05-22T00:48:30.729Z,32.60
2019-05-22T00:51:21.861Z,34.10
2019-05-22T00:53:58.743Z,32.13
2019-05-22T00:57:03.266Z,35.53
2019-05-22T00:59:34.101Z,36.97
2019-05-22T01:02:05.432Z,36.83
2019-05-22T01:04:35.914Z,38.97
2019-05-22T01:07:12.198Z,36.00
2019-05-22T01:09:44.347Z,37.57
2019-05-22T01:12:21.732Z,39.17
2019-05-22T01:14:53.325Z,38.07
2019-05-22T01:17:25.187Z,37.33
2019-05-22T01:19:56.134Z,38.33
2019-05-22T01:22:28.626Z,37.63
2019-05-22T01:24:59.955Z,37.90
2019-05-22T01:27:30.107Z,37.60
2019-05-22T01:30:00.427Z,37.43
2019-05-22T01:32:46.955Z,40.47
2019-05-22T01:35:16.665Z,39.83
2019-05-22T01:37:47.025Z,40.90
2019-05-22T01:40:26.508Z,40.73
2019-05-22T01:42:58.797Z,41.83
2019-05-22T01:45:28.039Z,42.30
2019-05-22T01:48:15.316Z,41.10
2019-05-22T01:50:49.247Z,39.57
2019-05-22T01:53:21.998Z,42.40
2019-05-22T01:55:58.055Z,38.20
2019-05-22T01:58:30.283Z,35.83
2019-05-22T02:01:00.472Z,34.27
2019-05-22T02:03:33.182Z,33.70
2019-05-22T02:06:02.389Z,33.97
2019-05-22T02:08:32.272Z,33.30
2019-05-22T02:11:02.075Z,34.80
2019-05-22T02:13:39.078Z,31.13
2019-05-22T02:16:09.507Z,31.03
2019-05-22T02:18:39.321Z,29.33
2019-05-22T02:21:10.701Z,27.23
2019-05-22T02:23:40.520Z,29.73
2019-05-22T02:26:11.279Z,29.53
2019-05-22T02:28:40.410Z,27.43
2019-05-22T02:31:11.179Z,28.30
2019-05-22T02:33:57.815Z,27.37
2019-05-22T02:36:28.591Z,28.90
2019-05-22T02:38:59.177Z,28.50
2019-05-22T02:41:34.915Z,28.73
2019-05-22T02:44:05.256Z,29.67
2019-05-22T02:46:35.000Z,27.37
2019-05-22T02:49:05.127Z,33.07
2019-05-22T02:51:34.255Z,28.50
2019-05-22T02:54:05.471Z,31.13
2019-05-22T02:56:35.978Z,30.90
2019-05-22T02:59:08.948Z,29.93
2019-05-22T03:01:38.689Z,30.10
2019-05-22T03:04:09.396Z,30.13
2019-05-22T03:06:38.512Z,27.93
2019-05-22T03:09:19.814Z,31.30
2019-05-22T03:11:54.791Z,30.77
2019-05-22T03:14:24.671Z,28.57
2019-05-22T03:16:57.977Z,27.10
2019-05-22T03:19:34.226Z,30.73
2019-05-22T03:22:17.458Z,30.20
2019-05-22T03:24:46.717Z,30.30
2019-05-22T03:27:19.529Z,31.67
2019-05-22T03:29:53.334Z,33.33
2019-05-22T03:32:22.740Z,32.87
2019-05-22T03:34:53.106Z,33.57
2019-05-22T03:37:25.044Z,36.47
2019-05-22T03:39:54.664Z,35.23
2019-05-22T03:42:24.653Z,34.90
2019-05-22T03:44:55.834Z,34.90
2019-05-22T03:47:26.013Z,34.17
2019-05-22T03:49:55.124Z,35.33
2019-05-22T03:52:25.706Z,36.77
2019-05-22T03:54:55.786Z,35.07
2019-05-22T03:57:25.386Z,33.50
2019-05-22T03:59:55.675Z,34.23
2019-05-22T04:02:24.790Z,32.70
2019-05-22T04:04:55.233Z,32.77
2019-05-22T04:07:26.375Z,36.00
2019-05-22T04:09:57.386Z,32.20
2019-05-22T04:12:27.315Z,32.07
2019-05-22T04:14:57.052Z,30.10
2019-05-22T04:17:26.712Z,29.53
2019-05-22T04:19:56.006Z,26.43
2019-05-22T04:22:25.371Z,28.90
2019-05-22T04:24:54.562Z,27.93
2019-05-22T04:27:24.462Z,25.83
2019-05-22T04:29:53.958Z,24.90
2019-05-22T04:32:35.102Z,25.67
2019-05-22T04:35:09.227Z,24.87
2019-05-22T04:37:38.390Z,25.23
2019-05-22T04:40:51.478Z,26.53
2019-05-22T04:43:23.648Z,26.63
2019-05-22T04:45:53.695Z,27.57
2019-05-22T04:48:23.549Z,26.00
2019-05-22T04:50:53.189Z,26.17
2019-05-22T04:53:22.928Z,25.83
2019-05-22T04:55:52.334Z,27.53
2019-05-22T04:58:26.543Z,27.07
2019-05-22T05:00:56.167Z,25.40
2019-05-22T05:03:27.110Z,30.50
2019-05-22T05:05:57.419Z,26.73
2019-05-22T05:08:26.339Z,27.57
2019-05-22T05:10:58.110Z,26.87
2019-05-22T05:13:27.139Z,28.20
2019-05-22T05:15:56.334Z,25.70
2019-05-22T05:18:26.133Z,27.23
2019-05-22T05:20:55.642Z,25.50
2019-05-22T05:23:25.062Z,25.70
2019-05-22T05:25:54.020Z,25.30
2019-05-22T05:28:23.587Z,25.50
2019-05-22T05:30:53.064Z,25.40
2019-05-22T05:33:22.552Z,25.33
2019-05-22T05:35:51.867Z,26.27
2019-05-22T05:38:32.379Z,26.80
2019-05-22T05:41:02.060Z,25.67
2019-05-22T05:43:31.153Z,25.03
2019-05-22T05:46:00.186Z,22.37
2019-05-22T05:48:31.418Z,20.17
2019-05-22T05:51:45.228Z,19.57
2019-05-22T05:54:15.281Z,19.43
2019-05-22T05:56:50.181Z,19.23
2019-05-22T05:59:22.742Z,19.17
2019-05-22T06:02:00.461Z,19.17
2019-05-22T06:04:37.915Z,18.67
2019-05-22T06:07:24.190Z,17.70
2019-05-22T06:10:42.391Z,17.70
2019-05-22T06:13:11.482Z,16.07
2019-05-22T06:19:03.581Z,15.63
2019-05-22T06:21:33.819Z,15.33
2019-05-22T06:24:25.440Z,15.23
2019-05-22T06:27:02.309Z,14.77
2019-05-22T06:29:35.713Z,15.90
2019-05-22T06:33:01.324Z,15.00
2019-05-22T06:35:37.471Z,16.10
2019-05-22T06:38:54.336Z,16.87
2019-05-22T06:41:25.189Z,15.73
2019-05-22T06:44:30.718Z,16.40
2019-05-22T06:46:59.896Z,16.40
2019-05-22T06:49:51.588Z,16.07
2019-05-22T06:52:20.894Z,16.87
2019-05-22T06:54:50.703Z,16.90
2019-05-22T06:57:29.507Z,16.97
2019-05-22T07:00:13.579Z,15.87
2019-05-22T07:02:35.425Z,16.70
2019-05-22T07:05:06.364Z,18.20
2019-05-22T07:07:35.975Z,16.50
2019-05-22T07:10:06.796Z,16.20
2019-05-22T07:12:36.810Z,17.50
2019-05-22T07:15:31.297Z,17.03
2019-05-22T07:18:01.230Z,15.73
2019-05-22T07:20:32.396Z,17.17
2019-05-22T07:23:03.533Z,17.30
2019-05-22T07:25:35.369Z,19.43
2019-05-22T07:28:05.436Z,15.63
2019-05-22T07:30:35.201Z,15.03
2019-05-22T07:33:05.339Z,15.23
2019-05-22T07:35:49.708Z,13.63
2019-05-22T07:38:05.319Z,14.97
2019-05-22T07:40:35.561Z,15.47
2019-05-22T07:43:05.115Z,14.70
2019-05-22T07:45:35.037Z,15.30
2019-05-22T07:48:07.352Z,16.70
2019-05-22T07:50:40.731Z,15.40
2019-05-22T07:53:10.272Z,15.40
2019-05-22T07:55:39.856Z,14.40
2019-05-22T07:58:11.764Z,14.97
2019-05-22T08:00:47.779Z,14.93
2019-05-22T08:03:17.533Z,16.80
2019-05-22T08:05:49.943Z,17.70
2019-05-22T08:08:19.250Z,14.93
2019-05-22T08:10:48.968Z,15.03
2019-05-22T08:13:18.286Z,16.17
2019-05-22T08:15:48.241Z,13.70
2019-05-22T08:18:18.080Z,13.93
2019-05-22T08:20:47.071Z,13.80
2019-05-22T08:23:17.554Z,13.87
2019-05-22T08:25:46.847Z,13.90
2019-05-22T08:28:16.763Z,13.40
2019-05-22T08:30:47.742Z,13.40
2019-05-22T08:33:17.599Z,12.87
2019-05-22T08:35:47.748Z,15.90
2019-05-22T08:38:17.328Z,20.87
2019-05-22T08:40:47.447Z,14.43
2019-05-22T08:43:16.569Z,12.73
2019-05-22T08:45:46.260Z,14.33
2019-05-22T08:48:15.608Z,14.70
2019-05-22T08:50:45.700Z,14.40
2019-05-22T08:53:16.713Z,14.87
2019-05-22T08:55:46.762Z,13.90
2019-05-22T08:58:16.235Z,14.67
2019-05-22T09:00:47.030Z,14.17
2019-05-22T09:03:16.774Z,14.67
2019-05-22T09:05:45.860Z,14.43
2019-05-22T09:08:14.902Z,13.63
2019-05-22T09:10:44.269Z,13.97
2019-05-22T09:13:13.594Z,13.87
2019-05-22T09:15:43.302Z,13.77
2019-05-22T09:18:13.125Z,15.20
2019-05-22T09:20:49.480Z,14.37
2019-05-22T09:23:14.147Z,12.63
2019-05-22T09:25:43.286Z,12.77
2019-05-22T09:28:12.575Z,13.40
2019-05-22T09:30:41.420Z,13.63
2019-05-22T09:33:11.884Z,15.20
2019-05-22T09:35:41.065Z,14.50
2019-05-22T09:38:10.054Z,15.10
2019-05-22T09:40:39.358Z,17.50
2019-05-22T09:43:08.342Z,22.47
2019-05-22T09:45:38.040Z,22.13
2019-05-22T09:48:07.730Z,21.07
2019-05-22T09:50:37.211Z,21.47
2019-05-22T09:53:08.886Z,19.90
2019-05-22T09:55:38.412Z,17.77
2019-05-22T09:58:08.664Z,19.27
2019-05-22T10:00:38.303Z,21.77
2019-05-22T10:03:07.549Z,20.87
2019-05-22T10:05:36.743Z,21.93
2019-05-22T10:08:06.604Z,21.65
2019-05-22T10:10:35.942Z,20.95
2019-05-22T10:13:05.819Z,19.25
2019-05-22T10:15:35.336Z,17.90
2019-05-22T10:18:05.048Z,17.55
2019-05-22T10:20:34.049Z,19.93
2019-05-22T10:23:14.629Z,20.12
2019-05-22T10:25:35.202Z,19.80
2019-05-22T10:28:06.513Z,19.07
2019-05-22T10:30:36.182Z,14.58
2019-05-22T10:33:06.408Z,13.08
2019-05-22T10:35:36.976Z,13.95
2019-05-22T10:38:07.352Z,14.28
2019-05-22T10:40:36.522Z,13.65
2019-05-22T10:43:05.596Z,15.15
2019-05-22T10:45:35.390Z,15.75
2019-05-22T10:48:04.545Z,15.07
2019-05-22T10:50:33.856Z,14.68
2019-05-22T10:53:02.822Z,14.05
2019-05-22T10:55:33.011Z,14.65
2019-05-22T10:58:02.298Z,13.05
2019-05-22T11:00:32.312Z,13.98
2019-05-22T11:03:01.432Z,13.10
2019-05-22T11:05:30.875Z,14.20
2019-05-22T11:08:00.232Z,12.37
2019-05-22T11:10:29.742Z,11.85
2019-05-22T11:12:58.998Z,11.88
2019-05-22T11:15:28.529Z,13.60
2019-05-22T11:17:59.200Z,11.63
2019-05-22T11:20:28.481Z,11.93
2019-05-22T11:22:58.042Z,11.43
2019-05-22T11:25:27.127Z,10.40
2019-05-22T11:27:55.969Z,10.32
2019-05-22T11:30:24.931Z,9.68
2019-05-22T11:32:54.649Z,9.90
2019-05-22T11:35:25.496Z,10.65
2019-05-22T11:37:54.559Z,11.22
2019-05-22T11:40:24.473Z,9.83
2019-05-22T11:42:54.852Z,10.53
2019-05-22T11:45:24.986Z,11.30
2019-05-22T11:47:54.633Z,11.43
2019-05-22T11:50:25.378Z,10.03
2019-05-22T11:52:54.604Z,11.05
2019-05-22T11:55:40.752Z,9.70
2019-05-22T11:57:54.551Z,9.28
2019-05-22T12:00:25.812Z,9.93
2019-05-22T12:02:55.596Z,9.85
2019-05-22T12:05:25.478Z,10.05
2019-05-22T12:07:54.681Z,9.48
2019-05-22T12:10:25.217Z,9.28
2019-05-22T12:12:56.020Z,9.18
2019-05-22T12:15:29.640Z,8.38
2019-05-22T12:17:58.851Z,8.78
2019-05-22T12:20:29.188Z,9.80
2019-05-22T12:22:58.444Z,8.18
2019-05-22T12:25:28.773Z,9.50
2019-05-22T12:27:57.945Z,8.05
2019-05-22T12:30:27.868Z,9.80
2019-05-22T12:32:57.780Z,9.03
2019-05-22T12:35:27.710Z,9.10
2019-05-22T12:37:58.858Z,10.45
2019-05-22T12:40:32.009Z,9.33
2019-05-22T12:43:01.785Z,9.33
2019-05-22T12:45:32.101Z,9.33
2019-05-22T12:48:02.077Z,10.18
2019-05-22T12:50:32.185Z,9.25
2019-05-22T12:53:04.494Z,9.25
2019-05-22T12:55:33.943Z,9.45
2019-05-22T12:58:05.333Z,8.75
2019-05-22T13:00:35.423Z,10.38
2019-05-22T13:03:06.419Z,8.95
2019-05-22T13:05:37.060Z,9.15
2019-05-22T13:08:06.954Z,8.80
2019-05-22T13:10:36.811Z,9.68
2019-05-22T13:13:06.030Z,9.60
2019-05-22T13:15:37.727Z,9.98
2019-05-22T13:18:08.166Z,9.70
2019-05-22T13:20:43.245Z,9.43
2019-05-22T13:23:12.965Z,8.75
2019-05-22T13:25:43.557Z,8.40
2019-05-22T13:28:16.277Z,9.30
2019-05-22T13:30:51.937Z,10.68
2019-05-22T13:33:24.380Z,9.48
2019-05-22T13:35:54.711Z,9.13
2019-05-22T13:38:24.476Z,9.73
2019-05-22T13:40:53.962Z,8.60
2019-05-22T13:43:23.473Z,9.20
2019-05-22T13:45:52.533Z,10.13
2019-05-22T13:48:21.612Z,8.65
2019-05-22T13:50:50.860Z,8.63
2019-05-22T13:53:21.476Z,7.72
2019-05-22T13:55:51.908Z,8.05
2019-05-22T13:58:21.626Z,9.25
2019-05-22T14:00:51.552Z,9.55
2019-05-22T14:03:22.336Z,8.83
2019-05-22T14:05:52.313Z,7.97
2019-05-22T14:08:22.921Z,8.53
2019-05-22T14:10:52.889Z,7.72
2019-05-22T14:13:24.139Z,8.08
2019-05-22T14:15:56.912Z,8.48
2019-05-22T14:18:24.530Z,8.10
2019-05-22T14:20:53.826Z,7.33
2019-05-22T14:23:23.126Z,7.87
2019-05-22T14:25:52.198Z,7.53
2019-05-22T14:28:22.512Z,7.85
2019-05-22T14:30:52.169Z,9.03
2019-05-22T14:33:21.237Z,8.15
2019-05-22T14:35:52.467Z,8.10
2019-05-22T14:38:22.239Z,8.37
2019-05-22T14:40:51.685Z,8.28
2019-05-22T14:43:20.776Z,7.80
2019-05-22T14:45:50.069Z,8.80
2019-05-22T14:48:19.392Z,9.45
2019-05-22T14:50:49.169Z,8.28
2019-05-22T14:53:18.487Z,15.75
2019-05-22T14:55:49.746Z,9.35
2019-05-22T14:58:19.573Z,8.68
2019-05-22T15:00:49.759Z,8.95
2019-05-22T15:03:19.699Z,8.68
2019-05-22T15:05:48.911Z,8.43
2019-05-22T15:08:18.152Z,9.00
2019-05-22T15:10:47.476Z,8.98
2019-05-22T15:13:17.074Z,8.77
2019-05-22T15:15:46.049Z,10.23
2019-05-22T15:18:15.789Z,8.25
2019-05-22T15:20:52.595Z,8.63
2019-05-22T15:23:22.777Z,7.42
2019-05-22T15:25:52.107Z,8.60
2019-05-22T15:28:26.295Z,8.83
2019-05-22T15:30:53.555Z,8.08
2019-05-22T15:33:22.587Z,8.70
2019-05-22T15:35:53.658Z,9.18
2019-05-22T15:38:23.740Z,8.40
2019-05-22T15:40:53.735Z,7.90
2019-05-22T15:43:24.977Z,7.60
2019-05-22T15:45:55.464Z,7.95
2019-05-22T15:48:30.052Z,7.37
2019-05-22T15:51:04.497Z,7.80
2019-05-22T15:53:34.918Z,10.05
2019-05-22T15:56:05.592Z,9.53
2019-05-22T15:58:35.151Z,8.30
2019-05-22T16:01:06.619Z,7.78
2019-05-22T16:03:36.634Z,7.22
2019-05-22T16:06:06.281Z,7.28
2019-05-22T16:08:36.395Z,7.50
2019-05-22T16:11:09.134Z,7.97
2019-05-22T16:13:40.137Z,8.48
2019-05-22T16:16:13.069Z,7.00
2019-05-22T16:18:44.486Z,7.87
2019-05-22T16:21:14.494Z,8.58
2019-05-22T16:23:43.965Z,7.83
2019-05-22T16:26:13.785Z,7.93
2019-05-22T16:28:45.808Z,6.43
2019-05-22T16:31:16.409Z,7.45
2019-05-22T16:33:48.013Z,6.43
2019-05-22T16:36:19.985Z,6.77
2019-05-22T16:38:51.752Z,7.10
2019-05-22T16:41:22.510Z,8.03
2019-05-22T16:43:52.003Z,9.73
2019-05-22T16:46:23.274Z,8.33
2019-05-22T16:48:53.646Z,8.07
2019-05-22T16:51:24.898Z,8.33
2019-05-22T16:53:56.514Z,9.13
2019-05-22T16:56:26.209Z,7.93
2019-05-22T16:58:56.749Z,7.80
2019-05-22T17:01:26.978Z,7.97
2019-05-22T17:03:59.637Z,7.00
2019-05-22T17:06:29.198Z,7.30
2019-05-22T17:08:59.164Z,7.13
2019-05-22T17:11:28.668Z,7.03
2019-05-22T17:14:01.410Z,8.03
2019-05-22T17:16:32.209Z,6.60
2019-05-22T17:19:02.017Z,7.17
2019-05-22T17:21:31.400Z,6.15
2019-05-22T17:24:01.837Z,6.50
2019-05-22T17:26:31.309Z,6.25
2019-05-22T17:29:00.479Z,6.20
2019-05-22T17:31:30.620Z,6.70
2019-05-22T17:34:00.294Z,6.80
2019-05-22T17:36:30.733Z,7.37
2019-05-22T17:39:01.316Z,9.03
2019-05-22T17:41:30.658Z,8.10
2019-05-22T17:44:01.555Z,7.10
2019-05-22T17:46:33.345Z,6.30
2019-05-22T17:49:03.524Z,6.30
2019-05-22T17:51:33.313Z,6.90
2019-05-22T17:54:03.380Z,7.13
2019-05-22T17:56:32.550Z,7.07
2019-05-22T17:59:01.996Z,6.80
2019-05-22T18:01:31.358Z,7.07
2019-05-22T18:04:00.364Z,6.87
2019-05-22T18:06:29.926Z,6.10
2019-05-22T18:08:59.483Z,6.83
2019-05-22T18:11:28.780Z,7.70
2019-05-22T18:14:01.648Z,7.47
2019-05-22T18:16:31.697Z,6.63
2019-05-22T18:19:00.825Z,8.37
2019-05-22T18:21:31.127Z,8.40
2019-05-22T18:24:00.313Z,7.00
2019-05-22T18:26:30.024Z,6.10
2019-05-22T18:28:59.131Z,5.53
2019-05-22T18:31:32.842Z,6.00
2019-05-22T18:34:02.139Z,5.90
2019-05-22T18:36:31.186Z,6.30
2019-05-22T18:39:00.646Z,5.63
2019-05-22T18:41:29.590Z,5.83
2019-05-22T18:43:59.041Z,6.10
2019-05-22T18:46:28.499Z,5.60
2019-05-22T18:48:57.911Z,5.90
2019-05-22T18:51:27.223Z,6.87
2019-05-22T18:53:56.550Z,8.20
2019-05-22T18:56:25.455Z,8.30
2019-05-22T18:58:55.072Z,7.23
2019-05-22T19:01:24.348Z,6.40
2019-05-22T19:03:53.719Z,5.90
2019-05-22T19:06:30.386Z,5.60
2019-05-22T19:08:54.534Z,5.40
2019-05-22T19:11:23.734Z,5.20
2019-05-22T19:13:52.858Z,5.90
2019-05-22T19:16:22.387Z,5.73
2019-05-22T19:18:51.417Z,5.13
2019-05-22T19:21:20.399Z,5.50
2019-05-22T19:23:49.354Z,5.37
2019-05-22T19:26:18.667Z,5.23
2019-05-22T19:28:48.470Z,6.43
2019-05-22T19:31:17.427Z,5.40
2019-05-22T19:33:47.530Z,5.37
2019-05-22T19:36:35.656Z,5.43
2019-05-22T19:39:06.919Z,7.47
2019-05-22T19:41:36.211Z,6.07
2019-05-22T19:44:05.494Z,7.07
2019-05-22T19:46:34.632Z,6.83
2019-05-22T19:49:04.937Z,6.20
2019-05-22T19:51:34.744Z,5.40
2019-05-22T19:54:04.275Z,5.30
2019-05-22T19:56:33.237Z,6.10
2019-05-22T19:59:02.699Z,6.57
2019-05-22T20:01:32.121Z,8.63
2019-05-22T20:04:01.378Z,6.00
2019-05-22T20:06:30.870Z,6.03
2019-05-22T20:09:00.441Z,5.63
2019-05-22T20:11:29.801Z,7.97
2019-05-22T20:13:59.075Z,6.73
2019-05-22T20:16:28.165Z,6.40
2019-05-22T20:18:57.534Z,7.80
2019-05-22T20:21:26.927Z,7.00
2019-05-22T20:23:56.092Z,6.83
2019-05-22T20:26:26.323Z,8.33
2019-05-22T20:28:55.905Z,8.90
2019-05-22T20:31:25.543Z,8.73
2019-05-22T20:33:54.507Z,8.37
2019-05-22T20:36:23.649Z,8.37
2019-05-22T20:38:52.793Z,8.37
2019-05-22T20:41:22.118Z,9.37
2019-05-22T20:43:51.725Z,9.30
2019-05-22T20:46:21.717Z,10.30
2019-05-22T20:48:52.504Z,8.67
2019-05-22T20:51:22.495Z,9.43
2019-05-22T20:53:54.657Z,9.07
2019-05-22T20:56:24.573Z,8.80
2019-05-22T20:58:54.522Z,8.40
2019-05-22T21:01:24.893Z,8.40
2019-05-22T21:03:54.383Z,8.47
2019-05-22T21:06:25.910Z,8.30
2019-05-22T21:08:55.638Z,8.20
2019-05-22T21:11:27.299Z,8.40
2019-05-22T21:13:56.624Z,8.20
2019-05-22T21:16:27.542Z,8.40
2019-05-22T21:18:57.850Z,7.30
2019-05-22T21:21:27.479Z,8.47
2019-05-22T21:24:09.361Z,9.73
2019-05-22T21:26:27.701Z,8.87
2019-05-22T21:28:58.844Z,8.70
2019-05-22T21:31:28.886Z,8.73
2019-05-22T21:33:57.900Z,8.57
2019-05-22T21:36:27.857Z,9.13
2019-05-22T21:38:57.344Z,8.60
2019-05-22T21:41:26.568Z,8.70
2019-05-22T21:43:55.642Z,9.10
2019-05-22T21:46:25.655Z,9.43
2019-05-22T21:48:56.816Z,8.60
2019-05-22T21:51:26.123Z,8.53
2019-05-22T21:53:55.589Z,8.87
2019-05-22T21:56:25.722Z,8.50
2019-05-22T21:58:55.089Z,8.53
2019-05-22T22:01:34.457Z,8.47
2019-05-22T22:04:33.207Z,9.33
2019-05-22T22:07:02.681Z,9.03
2019-05-22T22:09:32.375Z,8.80
2019-05-22T22:12:02.285Z,8.40
2019-05-22T22:14:32.238Z,9.17
2019-05-22T22:17:02.454Z,8.53
2019-05-22T22:19:32.703Z,8.13
2019-05-22T22:22:01.849Z,8.17
2019-05-22T22:24:31.907Z,8.03
2019-05-22T22:27:01.790Z,8.73
2019-05-22T22:29:31.856Z,8.70
2019-05-22T22:32:01.232Z,8.40
2019-05-22T22:34:44.749Z,8.37
2019-05-22T22:37:14.725Z,8.63
2019-05-22T22:39:47.550Z,9.27
2019-05-22T22:42:18.067Z,8.97
2019-05-22T22:44:51.756Z,7.90
2019-05-22T22:47:26.355Z,8.50
2019-05-22T22:49:57.629Z,8.40
2019-05-22T22:52:29.014Z,9.80
2019-05-22T22:54:58.411Z,8.93
2019-05-22T22:57:27.901Z,9.27
2019-05-22T22:59:57.337Z,8.37
2019-05-22T23:02:30.179Z,9.03
2019-05-22T23:04:59.558Z,9.93
2019-05-22T23:07:31.812Z,9.80
2019-05-22T23:10:02.040Z,9.80
2019-05-22T23:12:31.410Z,9.97
2019-05-22T23:15:01.681Z,9.67
2019-05-22T23:17:32.193Z,9.33
2019-05-22T23:19:59.976Z,9.70
2019-05-22T23:22:31.501Z,10.10
2019-05-22T23:25:00.600Z,11.10
2019-05-22T23:27:31.459Z,10.53
2019-05-22T23:30:01.038Z,9.10
2019-05-22T23:32:33.280Z,9.57
2019-05-22T23:35:03.138Z,9.53
2019-05-22T23:37:32.254Z,8.53
2019-05-22T23:40:02.246Z,10.23
2019-05-22T23:42:38.540Z,9.10
2019-05-22T23:45:12.797Z,9.33
2019-05-22T23:48:11.884Z,10.07
2019-05-22T23:50:41.686Z,9.33
2019-05-22T23:53:12.248Z,9.17
2019-05-22T23:55:43.016Z,9.73
2019-05-22T23:58:13.972Z,10.47
